sensor_id;sensor_type;location;lat;lon;timestamp;pressure;altitude;pressure_sealevel;temperature
19666;BMP180;9980;51.020;7.772;2024-02-15T00:02:25;97712.00;;;15.00
19666;BMP180;9980;51.020;7.772;2024-02-15T00:04:52;97706.00;;;15.00
19666;BMP180;9980;51.020;7.772;2024-02-15T00:07:19;97700.00;;;15.00
19666;BMP180;9980;51.020;7.772;2024-02-15T00:09:49;97708.00;;;15.00
19666;BMP180;9980;51.020;7.772;2024-02-15T00:12:16;97719.00;;;15.00
19666;BMP180;9980;51.020;7.772;2024-02-15T00:14:43;97706.00;;;15.00
19666;BMP180;9980;51.020;7.772;2024-02-15T00:17:10;97711.00;;;15.00
19666;BMP180;9980;51.020;7.772;2024-02-15T00:19:38;97712.00;;;15.00
19666;BMP180;9980;51.020;7.772;2024-02-15T00:22:08;97701.00;;;15.00
19666;BMP180;9980;51.020;7.772;2024-02-15T00:24:37;97727.00;;;15.00
19666;BMP180;9980;51.020;7.772;2024-02-15T00:27:05;97719.00;;;15.00
19666;BMP180;9980;51.020;7.772;2024-02-15T00:29:32;97703.00;;;15.00
19666;BMP180;9980;51.020;7.772;2024-02-15T00:32:01;97721.00;;;15.00
19666;BMP180;9980;51.020;7.772;2024-02-15T00:34:30;97715.00;;;15.00
19666;BMP180;9980;51.020;7.772;2024-02-15T00:36:58;97717.00;;;15.00
19666;BMP180;9980;51.020;7.772;2024-02-15T00:39:25;97714.00;;;15.00
19666;BMP180;9980;51.020;7.772;2024-02-15T00:41:52;97734.00;;;15.00
19666;BMP180;9980;51.020;7.772;2024-02-15T00:44:19;97717.00;;;15.00
19666;BMP180;9980;51.020;7.772;2024-02-15T00:46:46;97713.00;;;15.00
19666;BMP180;9980;51.020;7.772;2024-02-15T00:49:15;97719.00;;;15.00
19666;BMP180;9980;51.020;7.772;2024-02-15T00:51:42;97726.00;;;15.00
19666;BMP180;9980;51.020;7.772;2024-02-15T00:54:09;97723.00;;;15.00
19666;BMP180;9980;51.020;7.772;2024-02-15T00:56:36;97716.00;;;15.00
19666;BMP180;9980;51.020;7.772;2024-02-15T00:59:03;97727.00;;;15.00
19666;BMP180;9980;51.020;7.772;2024-02-15T01:01:32;97731.00;;;15.00
19666;BMP180;9980;51.020;7.772;2024-02-15T01:03:59;97732.00;;;15.00
19666;BMP180;9980;51.020;7.772;2024-02-15T01:06:26;97722.00;;;15.00
19666;BMP180;9980;51.020;7.772;2024-02-15T01:08:53;97726.00;;;15.00
19666;BMP180;9980;51.020;7.772;2024-02-15T01:11:20;97736.00;;;15.00
19666;BMP180;9980;51.020;7.772;2024-02-15T01:13:47;97724.00;;;15.00
19666;BMP180;9980;51.020;7.772;2024-02-15T01:16:14;97723.00;;;15.00
19666;BMP180;9980;51.020;7.772;2024-02-15T01:18:42;97721.00;;;15.00
19666;BMP180;9980;51.020;7.772;2024-02-15T01:21:09;97733.00;;;15.00
19666;BMP180;9980;51.020;7.772;2024-02-15T01:23:38;97724.00;;;15.00
19666;BMP180;9980;51.020;7.772;2024-02-15T01:26:06;97730.00;;;15.00
19666;BMP180;9980;51.020;7.772;2024-02-15T01:28:32;97719.00;;;15.00
19666;BMP180;9980;51.020;7.772;2024-02-15T01:31:00;97714.00;;;15.00
19666;BMP180;9980;51.020;7.772;2024-02-15T01:33:27;97716.00;;;15.00
19666;BMP180;9980;51.020;7.772;2024-02-15T01:35:54;97721.00;;;15.00
19666;BMP180;9980;51.020;7.772;2024-02-15T01:38:21;97703.00;;;15.00
19666;BMP180;9980;51.020;7.772;2024-02-15T01:40:48;97720.00;;;15.00
19666;BMP180;9980;51.020;7.772;2024-02-15T01:43:16;97716.00;;;15.00
19666;BMP180;9980;51.020;7.772;2024-02-15T01:45:43;97716.00;;;15.00
19666;BMP180;9980;51.020;7.772;2024-02-15T01:48:10;97722.00;;;15.00
19666;BMP180;9980;51.020;7.772;2024-02-15T01:50:38;97722.00;;;15.00
19666;BMP180;9980;51.020;7.772;2024-02-15T01:53:08;97714.00;;;15.00
19666;BMP180;9980;51.020;7.772;2024-02-15T01:55:38;97717.00;;;15.00
19666;BMP180;9980;51.020;7.772;2024-02-15T01:58:07;97710.00;;;15.00
19666;BMP180;9980;51.020;7.772;2024-02-15T02:00:36;97714.00;;;15.00
19666;BMP180;9980;51.020;7.772;2024-02-15T02:03:08;97710.00;;;15.00
19666;BMP180;9980;51.020;7.772;2024-02-15T02:05:37;97702.00;;;15.00
19666;BMP180;9980;51.020;7.772;2024-02-15T02:08:04;97713.00;;;15.00
19666;BMP180;9980;51.020;7.772;2024-02-15T02:10:39;97715.00;;;15.00
19666;BMP180;9980;51.020;7.772;2024-02-15T02:13:07;97715.00;;;15.00
19666;BMP180;9980;51.020;7.772;2024-02-15T02:15:35;97710.00;;;15.00
19666;BMP180;9980;51.020;7.772;2024-02-15T02:18:04;97713.00;;;15.00
19666;BMP180;9980;51.020;7.772;2024-02-15T02:20:36;97710.00;;;15.00
19666;BMP180;9980;51.020;7.772;2024-02-15T02:23:14;97699.00;;;15.00
19666;BMP180;9980;51.020;7.772;2024-02-15T02:25:44;97691.00;;;15.00
19666;BMP180;9980;51.020;7.772;2024-02-15T02:28:12;97695.00;;;15.00
19666;BMP180;9980;51.020;7.772;2024-02-15T02:30:40;97687.00;;;15.00
19666;BMP180;9980;51.020;7.772;2024-02-15T02:33:14;97691.00;;;15.00
19666;BMP180;9980;51.020;7.772;2024-02-15T02:35:49;97703.00;;;15.00
19666;BMP180;9980;51.020;7.772;2024-02-15T02:38:17;97695.00;;;15.00
19666;BMP180;9980;51.020;7.772;2024-02-15T02:40:44;97686.00;;;15.00
19666;BMP180;9980;51.020;7.772;2024-02-15T02:43:11;97691.00;;;15.00
19666;BMP180;9980;51.020;7.772;2024-02-15T02:45:38;97688.00;;;15.00
19666;BMP180;9980;51.020;7.772;2024-02-15T02:48:05;97685.00;;;15.00
19666;BMP180;9980;51.020;7.772;2024-02-15T02:50:34;97677.00;;;15.00
19666;BMP180;9980;51.020;7.772;2024-02-15T02:53:01;97679.00;;;15.00
19666;BMP180;9980;51.020;7.772;2024-02-15T02:55:28;97675.00;;;15.00
19666;BMP180;9980;51.020;7.772;2024-02-15T02:57:55;97677.00;;;15.00
19666;BMP180;9980;51.020;7.772;2024-02-15T03:00:22;97668.00;;;15.10
19666;BMP180;9980;51.020;7.772;2024-02-15T03:02:50;97668.00;;;15.00
19666;BMP180;9980;51.020;7.772;2024-02-15T03:05:17;97665.00;;;15.10
19666;BMP180;9980;51.020;7.772;2024-02-15T03:07:48;97670.00;;;15.10
19666;BMP180;9980;51.020;7.772;2024-02-15T03:10:18;97674.00;;;15.10
19666;BMP180;9980;51.020;7.772;2024-02-15T03:12:45;97674.00;;;15.10
19666;BMP180;9980;51.020;7.772;2024-02-15T03:15:16;97663.00;;;15.10
19666;BMP180;9980;51.020;7.772;2024-02-15T03:17:47;97683.00;;;15.10
19666;BMP180;9980;51.020;7.772;2024-02-15T03:20:17;97661.00;;;15.10
19666;BMP180;9980;51.020;7.772;2024-02-15T03:22:56;97677.00;;;15.10
19666;BMP180;9980;51.020;7.772;2024-02-15T03:25:25;97667.00;;;15.10
19666;BMP180;9980;51.020;7.772;2024-02-15T03:27:53;97675.00;;;15.10
19666;BMP180;9980;51.020;7.772;2024-02-15T03:30:24;97665.00;;;15.10
19666;BMP180;9980;51.020;7.772;2024-02-15T03:32:52;97658.00;;;15.10
19666;BMP180;9980;51.020;7.772;2024-02-15T03:35:22;97665.00;;;15.10
19666;BMP180;9980;51.020;7.772;2024-02-15T03:37:50;97671.00;;;15.10
19666;BMP180;9980;51.020;7.772;2024-02-15T03:40:22;97659.00;;;15.10
19666;BMP180;9980;51.020;7.772;2024-02-15T03:42:49;97663.00;;;15.10
19666;BMP180;9980;51.020;7.772;2024-02-15T03:45:20;97669.00;;;15.10
19666;BMP180;9980;51.020;7.772;2024-02-15T03:47:47;97662.00;;;15.10
19666;BMP180;9980;51.020;7.772;2024-02-15T03:50:17;97656.00;;;15.10
19666;BMP180;9980;51.020;7.772;2024-02-15T03:52:45;97657.00;;;15.10
19666;BMP180;9980;51.020;7.772;2024-02-15T03:55:13;97668.00;;;15.10
19666;BMP180;9980;51.020;7.772;2024-02-15T03:57:41;97646.00;;;15.10
19666;BMP180;9980;51.020;7.772;2024-02-15T04:00:08;97662.00;;;15.10
19666;BMP180;9980;51.020;7.772;2024-02-15T04:02:38;97655.00;;;15.10
19666;BMP180;9980;51.020;7.772;2024-02-15T04:05:09;97667.00;;;15.10
19666;BMP180;9980;51.020;7.772;2024-02-15T04:07:38;97673.00;;;15.00
19666;BMP180;9980;51.020;7.772;2024-02-15T04:10:06;97669.00;;;15.10
19666;BMP180;9980;51.020;7.772;2024-02-15T04:12:33;97667.00;;;15.00
19666;BMP180;9980;51.020;7.772;2024-02-15T04:15:01;97668.00;;;15.00
19666;BMP180;9980;51.020;7.772;2024-02-15T04:17:32;97675.00;;;15.00
19666;BMP180;9980;51.020;7.772;2024-02-15T04:20:03;97674.00;;;15.00
19666;BMP180;9980;51.020;7.772;2024-02-15T04:22:31;97683.00;;;15.00
19666;BMP180;9980;51.020;7.772;2024-02-15T04:25:07;97674.00;;;15.00
19666;BMP180;9980;51.020;7.772;2024-02-15T04:27:38;97660.00;;;14.90
19666;BMP180;9980;51.020;7.772;2024-02-15T04:30:06;97668.00;;;14.90
19666;BMP180;9980;51.020;7.772;2024-02-15T04:32:38;97673.00;;;14.90
19666;BMP180;9980;51.020;7.772;2024-02-15T04:35:05;97675.00;;;14.90
19666;BMP180;9980;51.020;7.772;2024-02-15T04:37:35;97667.00;;;14.90
19666;BMP180;9980;51.020;7.772;2024-02-15T04:40:05;97673.00;;;14.90
19666;BMP180;9980;51.020;7.772;2024-02-15T04:42:38;97681.00;;;14.90
19666;BMP180;9980;51.020;7.772;2024-02-15T04:45:08;97672.00;;;14.90
19666;BMP180;9980;51.020;7.772;2024-02-15T04:47:37;97674.00;;;14.90
19666;BMP180;9980;51.020;7.772;2024-02-15T04:50:07;97686.00;;;14.90
19666;BMP180;9980;51.020;7.772;2024-02-15T04:52:34;97678.00;;;14.90
19666;BMP180;9980;51.020;7.772;2024-02-15T04:55:02;97665.00;;;14.90
19666;BMP180;9980;51.020;7.772;2024-02-15T04:57:32;97666.00;;;14.90
19666;BMP180;9980;51.020;7.772;2024-02-15T05:00:02;97671.00;;;14.90
19666;BMP180;9980;51.020;7.772;2024-02-15T05:02:37;97664.00;;;14.90
19666;BMP180;9980;51.020;7.772;2024-02-15T05:05:07;97652.00;;;14.90
19666;BMP180;9980;51.020;7.772;2024-02-15T05:07:35;97651.00;;;14.90
19666;BMP180;9980;51.020;7.772;2024-02-15T05:10:06;97654.00;;;14.90
19666;BMP180;9980;51.020;7.772;2024-02-15T05:12:34;97647.00;;;14.90
19666;BMP180;9980;51.020;7.772;2024-02-15T05:15:01;97639.00;;;14.90
19666;BMP180;9980;51.020;7.772;2024-02-15T05:17:28;97651.00;;;14.90
19666;BMP180;9980;51.020;7.772;2024-02-15T05:19:56;97638.00;;;14.90
19666;BMP180;9980;51.020;7.772;2024-02-15T05:22:26;97635.00;;;14.80
19666;BMP180;9980;51.020;7.772;2024-02-15T05:24:56;97639.00;;;14.80
19666;BMP180;9980;51.020;7.772;2024-02-15T05:27:23;97640.00;;;14.80
19666;BMP180;9980;51.020;7.772;2024-02-15T05:29:50;97631.00;;;14.80
19666;BMP180;9980;51.020;7.772;2024-02-15T05:32:19;97637.00;;;14.80
19666;BMP180;9980;51.020;7.772;2024-02-15T05:34:47;97638.00;;;14.80
19666;BMP180;9980;51.020;7.772;2024-02-15T05:37:14;97640.00;;;14.80
19666;BMP180;9980;51.020;7.772;2024-02-15T05:39:42;97654.00;;;14.80
19666;BMP180;9980;51.020;7.772;2024-02-15T05:42:09;97643.00;;;14.80
19666;BMP180;9980;51.020;7.772;2024-02-15T05:44:37;97650.00;;;14.80
19666;BMP180;9980;51.020;7.772;2024-02-15T05:47:04;97646.00;;;14.80
19666;BMP180;9980;51.020;7.772;2024-02-15T05:49:31;97651.00;;;14.80
19666;BMP180;9980;51.020;7.772;2024-02-15T05:51:58;97654.00;;;14.80
19666;BMP180;9980;51.020;7.772;2024-02-15T05:54:25;97649.00;;;14.80
19666;BMP180;9980;51.020;7.772;2024-02-15T05:56:52;97656.00;;;14.80
19666;BMP180;9980;51.020;7.772;2024-02-15T05:59:20;97653.00;;;14.80
19666;BMP180;9980;51.020;7.772;2024-02-15T06:01:48;97645.00;;;14.80
19666;BMP180;9980;51.020;7.772;2024-02-15T06:04:15;97645.00;;;14.80
19666;BMP180;9980;51.020;7.772;2024-02-15T06:06:43;97641.00;;;14.80
19666;BMP180;9980;51.020;7.772;2024-02-15T06:09:15;97656.00;;;14.80
19666;BMP180;9980;51.020;7.772;2024-02-15T06:11:42;97641.00;;;14.80
19666;BMP180;9980;51.020;7.772;2024-02-15T06:14:12;97652.00;;;14.80
19666;BMP180;9980;51.020;7.772;2024-02-15T06:16:44;97650.00;;;14.80
19666;BMP180;9980;51.020;7.772;2024-02-15T06:19:11;97647.00;;;14.90
19666;BMP180;9980;51.020;7.772;2024-02-15T06:21:38;97652.00;;;14.90
19666;BMP180;9980;51.020;7.772;2024-02-15T06:24:05;97651.00;;;14.90
19666;BMP180;9980;51.020;7.772;2024-02-15T06:26:32;97651.00;;;14.90
19666;BMP180;9980;51.020;7.772;2024-02-15T06:29:00;97649.00;;;14.90
19666;BMP180;9980;51.020;7.772;2024-02-15T06:31:46;97637.00;;;14.90
19666;BMP180;9980;51.020;7.772;2024-02-15T06:34:31;97655.00;;;14.90
19666;BMP180;9980;51.020;7.772;2024-02-15T06:37:38;97641.00;;;14.80
19666;BMP180;9980;51.020;7.772;2024-02-15T06:40:24;97641.00;;;14.80
19666;BMP180;9980;51.020;7.772;2024-02-15T06:42:51;97639.00;;;14.80
19666;BMP180;9980;51.020;7.772;2024-02-15T06:45:18;97639.00;;;14.80
19666;BMP180;9980;51.020;7.772;2024-02-15T06:47:45;97633.00;;;14.80
19666;BMP180;9980;51.020;7.772;2024-02-15T06:50:13;97636.00;;;14.80
19666;BMP180;9980;51.020;7.772;2024-02-15T06:52:41;97639.00;;;14.80
19666;BMP180;9980;51.020;7.772;2024-02-15T06:55:09;97634.00;;;14.80
19666;BMP180;9980;51.020;7.772;2024-02-15T06:57:39;97628.00;;;14.90
19666;BMP180;9980;51.020;7.772;2024-02-15T07:00:10;97638.00;;;14.90
19666;BMP180;9980;51.020;7.772;2024-02-15T07:02:42;97650.00;;;14.90
19666;BMP180;9980;51.020;7.772;2024-02-15T07:05:11;97644.00;;;14.90
19666;BMP180;9980;51.020;7.772;2024-02-15T07:07:38;97642.00;;;14.90
19666;BMP180;9980;51.020;7.772;2024-02-15T07:10:10;97652.00;;;14.90
19666;BMP180;9980;51.020;7.772;2024-02-15T07:12:37;97654.00;;;14.90
19666;BMP180;9980;51.020;7.772;2024-02-15T07:15:08;97654.00;;;14.90
19666;BMP180;9980;51.020;7.772;2024-02-15T07:17:36;97668.00;;;14.90
19666;BMP180;9980;51.020;7.772;2024-02-15T07:20:04;97639.00;;;14.90
19666;BMP180;9980;51.020;7.772;2024-02-15T07:22:31;97656.00;;;14.90
19666;BMP180;9980;51.020;7.772;2024-02-15T07:24:58;97657.00;;;14.90
19666;BMP180;9980;51.020;7.772;2024-02-15T07:27:25;97646.00;;;14.90
19666;BMP180;9980;51.020;7.772;2024-02-15T07:29:53;97657.00;;;14.90
19666;BMP180;9980;51.020;7.772;2024-02-15T07:32:21;97655.00;;;14.90
19666;BMP180;9980;51.020;7.772;2024-02-15T07:34:47;97660.00;;;14.90
19666;BMP180;9980;51.020;7.772;2024-02-15T07:37:15;97662.00;;;14.90
19666;BMP180;9980;51.020;7.772;2024-02-15T07:39:42;97653.00;;;14.90
19666;BMP180;9980;51.020;7.772;2024-02-15T07:42:09;97662.00;;;15.00
19666;BMP180;9980;51.020;7.772;2024-02-15T07:44:36;97653.00;;;14.90
19666;BMP180;9980;51.020;7.772;2024-02-15T07:47:03;97659.00;;;15.00
19666;BMP180;9980;51.020;7.772;2024-02-15T07:49:31;97650.00;;;15.00
19666;BMP180;9980;51.020;7.772;2024-02-15T07:52:00;97662.00;;;15.00
19666;BMP180;9980;51.020;7.772;2024-02-15T07:54:27;97662.00;;;15.00
19666;BMP180;9980;51.020;7.772;2024-02-15T07:56:56;97673.00;;;15.00
19666;BMP180;9980;51.020;7.772;2024-02-15T07:59:25;97679.00;;;15.00
19666;BMP180;9980;51.020;7.772;2024-02-15T08:01:52;97665.00;;;15.00
19666;BMP180;9980;51.020;7.772;2024-02-15T08:04:19;97674.00;;;15.10
19666;BMP180;9980;51.020;7.772;2024-02-15T08:06:50;97675.00;;;15.00
19666;BMP180;9980;51.020;7.772;2024-02-15T08:09:20;97669.00;;;15.00
19666;BMP180;9980;51.020;7.772;2024-02-15T08:11:50;97670.00;;;15.10
19666;BMP180;9980;51.020;7.772;2024-02-15T08:14:18;97670.00;;;15.10
19666;BMP180;9980;51.020;7.772;2024-02-15T08:16:47;97667.00;;;15.10
19666;BMP180;9980;51.020;7.772;2024-02-15T08:19:14;97683.00;;;15.10
19666;BMP180;9980;51.020;7.772;2024-02-15T08:21:41;97673.00;;;15.10
19666;BMP180;9980;51.020;7.772;2024-02-15T08:24:12;97683.00;;;15.10
19666;BMP180;9980;51.020;7.772;2024-02-15T08:26:40;97686.00;;;15.10
19666;BMP180;9980;51.020;7.772;2024-02-15T08:29:09;97684.00;;;15.10
19666;BMP180;9980;51.020;7.772;2024-02-15T08:31:36;97682.00;;;15.10
19666;BMP180;9980;51.020;7.772;2024-02-15T08:34:03;97687.00;;;15.20
19666;BMP180;9980;51.020;7.772;2024-02-15T08:36:33;97689.00;;;15.20
19666;BMP180;9980;51.020;7.772;2024-02-15T08:39:00;97682.00;;;15.20
19666;BMP180;9980;51.020;7.772;2024-02-15T08:41:28;97669.00;;;15.20
19666;BMP180;9980;51.020;7.772;2024-02-15T08:43:55;97676.00;;;15.20
19666;BMP180;9980;51.020;7.772;2024-02-15T08:46:25;97683.00;;;15.30
19666;BMP180;9980;51.020;7.772;2024-02-15T08:48:54;97668.00;;;15.30
19666;BMP180;9980;51.020;7.772;2024-02-15T08:51:21;97666.00;;;15.30
19666;BMP180;9980;51.020;7.772;2024-02-15T08:53:51;97677.00;;;15.30
19666;BMP180;9980;51.020;7.772;2024-02-15T08:56:18;97660.00;;;15.30
19666;BMP180;9980;51.020;7.772;2024-02-15T08:58:45;97659.00;;;15.40
19666;BMP180;9980;51.020;7.772;2024-02-15T09:01:13;97670.00;;;15.40
19666;BMP180;9980;51.020;7.772;2024-02-15T09:03:41;97661.00;;;15.50
19666;BMP180;9980;51.020;7.772;2024-02-15T09:06:08;97651.00;;;15.50
19666;BMP180;9980;51.020;7.772;2024-02-15T09:08:35;97650.00;;;15.50
19666;BMP180;9980;51.020;7.772;2024-02-15T09:11:02;97644.00;;;15.50
19666;BMP180;9980;51.020;7.772;2024-02-15T09:13:32;97644.00;;;15.50
19666;BMP180;9980;51.020;7.772;2024-02-15T09:16:00;97641.00;;;15.50
19666;BMP180;9980;51.020;7.772;2024-02-15T09:18:27;97638.00;;;15.50
19666;BMP180;9980;51.020;7.772;2024-02-15T09:20:54;97641.00;;;15.60
19666;BMP180;9980;51.020;7.772;2024-02-15T09:23:23;97648.00;;;15.60
19666;BMP180;9980;51.020;7.772;2024-02-15T09:25:52;97648.00;;;15.60
19666;BMP180;9980;51.020;7.772;2024-02-15T09:28:19;97654.00;;;15.60
19666;BMP180;9980;51.020;7.772;2024-02-15T09:30:49;97645.00;;;15.60
19666;BMP180;9980;51.020;7.772;2024-02-15T09:33:21;97650.00;;;15.60
19666;BMP180;9980;51.020;7.772;2024-02-15T09:35:48;97645.00;;;15.60
19666;BMP180;9980;51.020;7.772;2024-02-15T09:38:16;97650.00;;;15.60
19666;BMP180;9980;51.020;7.772;2024-02-15T09:40:48;97643.00;;;15.60
19666;BMP180;9980;51.020;7.772;2024-02-15T09:43:16;97647.00;;;15.70
19666;BMP180;9980;51.020;7.772;2024-02-15T09:45:43;97641.00;;;15.70
19666;BMP180;9980;51.020;7.772;2024-02-15T09:48:11;97645.00;;;15.70
19666;BMP180;9980;51.020;7.772;2024-02-15T09:50:41;97649.00;;;15.80
19666;BMP180;9980;51.020;7.772;2024-02-15T09:53:12;97645.00;;;15.80
19666;BMP180;9980;51.020;7.772;2024-02-15T09:55:42;97648.00;;;15.80
19666;BMP180;9980;51.020;7.772;2024-02-15T09:58:10;97640.00;;;15.80
19666;BMP180;9980;51.020;7.772;2024-02-15T10:00:39;97639.00;;;15.90
19666;BMP180;9980;51.020;7.772;2024-02-15T10:03:06;97627.00;;;15.90
19666;BMP180;9980;51.020;7.772;2024-02-15T10:05:37;97635.00;;;15.90
19666;BMP180;9980;51.020;7.772;2024-02-15T10:08:07;97646.00;;;15.90
19666;BMP180;9980;51.020;7.772;2024-02-15T10:10:34;97646.00;;;16.00
19666;BMP180;9980;51.020;7.772;2024-02-15T10:13:02;97633.00;;;16.00
19666;BMP180;9980;51.020;7.772;2024-02-15T10:15:38;97650.00;;;16.00
19666;BMP180;9980;51.020;7.772;2024-02-15T10:18:09;97647.00;;;16.10
19666;BMP180;9980;51.020;7.772;2024-02-15T10:20:41;97632.00;;;16.10
19666;BMP180;9980;51.020;7.772;2024-02-15T10:23:14;97624.00;;;16.20
19666;BMP180;9980;51.020;7.772;2024-02-15T10:25:45;97626.00;;;16.20
19666;BMP180;9980;51.020;7.772;2024-02-15T10:28:14;97637.00;;;16.30
19666;BMP180;9980;51.020;7.772;2024-02-15T10:30:44;97629.00;;;16.30
19666;BMP180;9980;51.020;7.772;2024-02-15T10:33:26;97628.00;;;16.30
19666;BMP180;9980;51.020;7.772;2024-02-15T10:36:10;97621.00;;;16.40
19666;BMP180;9980;51.020;7.772;2024-02-15T10:38:40;97612.00;;;16.40
19666;BMP180;9980;51.020;7.772;2024-02-15T10:41:09;97619.00;;;16.50
19666;BMP180;9980;51.020;7.772;2024-02-15T10:43:38;97617.00;;;16.50
19666;BMP180;9980;51.020;7.772;2024-02-15T10:46:06;97631.00;;;16.60
19666;BMP180;9980;51.020;7.772;2024-02-15T10:48:37;97610.00;;;16.60
19666;BMP180;9980;51.020;7.772;2024-02-15T10:51:10;97620.00;;;16.70
19666;BMP180;9980;51.020;7.772;2024-02-15T10:53:47;97603.00;;;16.70
19666;BMP180;9980;51.020;7.772;2024-02-15T10:56:21;97608.00;;;16.80
19666;BMP180;9980;51.020;7.772;2024-02-15T10:59:03;97594.00;;;16.80
19666;BMP180;9980;51.020;7.772;2024-02-15T11:01:37;97592.00;;;16.90
19666;BMP180;9980;51.020;7.772;2024-02-15T11:04:14;97614.00;;;17.00
19666;BMP180;9980;51.020;7.772;2024-02-15T11:06:43;97592.00;;;17.10
19666;BMP180;9980;51.020;7.772;2024-02-15T11:09:14;97603.00;;;17.10
19666;BMP180;9980;51.020;7.772;2024-02-15T11:11:42;97600.00;;;17.20
19666;BMP180;9980;51.020;7.772;2024-02-15T11:14:31;97597.00;;;17.30
19666;BMP180;9980;51.020;7.772;2024-02-15T11:17:00;97585.00;;;17.40
19666;BMP180;9980;51.020;7.772;2024-02-15T11:22:08;97585.00;;;17.50
19666;BMP180;9980;51.020;7.772;2024-02-15T11:24:45;97596.00;;;17.50
19666;BMP180;9980;51.020;7.772;2024-02-15T11:27:24;97582.00;;;17.60
19666;BMP180;9980;51.020;7.772;2024-02-15T11:30:01;97587.00;;;17.60
19666;BMP180;9980;51.020;7.772;2024-02-15T11:32:42;97583.00;;;17.70
19666;BMP180;9980;51.020;7.772;2024-02-15T11:35:19;97566.00;;;17.70
19666;BMP180;9980;51.020;7.772;2024-02-15T11:40:15;97566.00;;;17.80
19666;BMP180;9980;51.020;7.772;2024-02-15T11:42:44;97563.00;;;17.90
19666;BMP180;9980;51.020;7.772;2024-02-15T11:45:12;97574.00;;;17.90
19666;BMP180;9980;51.020;7.772;2024-02-15T11:47:40;97569.00;;;17.90
19666;BMP180;9980;51.020;7.772;2024-02-15T11:50:10;97561.00;;;17.90
19666;BMP180;9980;51.020;7.772;2024-02-15T11:52:50;97560.00;;;17.90
19666;BMP180;9980;51.020;7.772;2024-02-15T11:55:23;97560.00;;;18.00
19666;BMP180;9980;51.020;7.772;2024-02-15T11:58:02;97544.00;;;18.00
19666;BMP180;9980;51.020;7.772;2024-02-15T12:00:32;97562.00;;;18.00
19666;BMP180;9980;51.020;7.772;2024-02-15T12:03:19;97561.00;;;18.00
19666;BMP180;9980;51.020;7.772;2024-02-15T12:06:07;97544.00;;;18.10
19666;BMP180;9980;51.020;7.772;2024-02-15T12:08:54;97552.00;;;18.10
19666;BMP180;9980;51.020;7.772;2024-02-15T12:11:41;97536.00;;;18.10
19666;BMP180;9980;51.020;7.772;2024-02-15T12:14:26;97541.00;;;18.10
19666;BMP180;9980;51.020;7.772;2024-02-15T12:17:13;97549.00;;;18.10
19666;BMP180;9980;51.020;7.772;2024-02-15T12:20:03;97539.00;;;18.10
19666;BMP180;9980;51.020;7.772;2024-02-15T12:22:43;97548.00;;;18.20
19666;BMP180;9980;51.020;7.772;2024-02-15T12:25:15;97535.00;;;18.20
19666;BMP180;9980;51.020;7.772;2024-02-15T12:27:52;97537.00;;;18.20
19666;BMP180;9980;51.020;7.772;2024-02-15T12:30:20;97531.00;;;18.20
19666;BMP180;9980;51.020;7.772;2024-02-15T12:32:49;97522.00;;;18.30
19666;BMP180;9980;51.020;7.772;2024-02-15T12:35:22;97534.00;;;18.20
19666;BMP180;9980;51.020;7.772;2024-02-15T12:40:37;97518.00;;;18.20
19666;BMP180;9980;51.020;7.772;2024-02-15T12:43:08;97527.00;;;18.30
19666;BMP180;9980;51.020;7.772;2024-02-15T12:45:38;97527.00;;;18.30
19666;BMP180;9980;51.020;7.772;2024-02-15T12:48:07;97532.00;;;18.30
19666;BMP180;9980;51.020;7.772;2024-02-15T12:50:35;97527.00;;;18.30
19666;BMP180;9980;51.020;7.772;2024-02-15T12:53:02;97521.00;;;18.40
19666;BMP180;9980;51.020;7.772;2024-02-15T12:55:31;97522.00;;;18.30
19666;BMP180;9980;51.020;7.772;2024-02-15T12:58:07;97518.00;;;18.30
19666;BMP180;9980;51.020;7.772;2024-02-15T13:00:37;97509.00;;;18.40
19666;BMP180;9980;51.020;7.772;2024-02-15T13:03:08;97514.00;;;18.40
19666;BMP180;9980;51.020;7.772;2024-02-15T13:05:38;97502.00;;;18.40
19666;BMP180;9980;51.020;7.772;2024-02-15T13:08:06;97503.00;;;18.30
19666;BMP180;9980;51.020;7.772;2024-02-15T13:10:37;97495.00;;;18.40
19666;BMP180;9980;51.020;7.772;2024-02-15T13:13:06;97494.00;;;18.40
19666;BMP180;9980;51.020;7.772;2024-02-15T13:15:33;97475.00;;;18.40
19666;BMP180;9980;51.020;7.772;2024-02-15T13:18:01;97486.00;;;18.30
19666;BMP180;9980;51.020;7.772;2024-02-15T13:20:31;97476.00;;;18.30
19666;BMP180;9980;51.020;7.772;2024-02-15T13:23:10;97486.00;;;18.30
19666;BMP180;9980;51.020;7.772;2024-02-15T13:25:50;97475.00;;;18.30
19666;BMP180;9980;51.020;7.772;2024-02-15T13:28:19;97476.00;;;18.40
19666;BMP180;9980;51.020;7.772;2024-02-15T13:30:46;97471.00;;;18.40
19666;BMP180;9980;51.020;7.772;2024-02-15T13:33:16;97463.00;;;18.30
19666;BMP180;9980;51.020;7.772;2024-02-15T13:35:44;97453.00;;;18.40
19666;BMP180;9980;51.020;7.772;2024-02-15T13:38:12;97453.00;;;18.40
19666;BMP180;9980;51.020;7.772;2024-02-15T13:40:49;97455.00;;;18.40
19666;BMP180;9980;51.020;7.772;2024-02-15T13:43:21;97443.00;;;18.40
19666;BMP180;9980;51.020;7.772;2024-02-15T13:45:48;97437.00;;;18.40
19666;BMP180;9980;51.020;7.772;2024-02-15T13:48:16;97434.00;;;18.40
19666;BMP180;9980;51.020;7.772;2024-02-15T13:50:43;97447.00;;;18.40
19666;BMP180;9980;51.020;7.772;2024-02-15T13:53:12;97420.00;;;18.40
19666;BMP180;9980;51.020;7.772;2024-02-15T13:55:40;97427.00;;;18.40
19666;BMP180;9980;51.020;7.772;2024-02-15T13:58:07;97421.00;;;18.40
19666;BMP180;9980;51.020;7.772;2024-02-15T14:00:36;97428.00;;;18.40
19666;BMP180;9980;51.020;7.772;2024-02-15T14:03:04;97419.00;;;18.40
19666;BMP180;9980;51.020;7.772;2024-02-15T14:05:33;97420.00;;;18.40
19666;BMP180;9980;51.020;7.772;2024-02-15T14:08:03;97414.00;;;18.40
19666;BMP180;9980;51.020;7.772;2024-02-15T14:10:33;97421.00;;;18.50
19666;BMP180;9980;51.020;7.772;2024-02-15T14:13:04;97412.00;;;18.50
19666;BMP180;9980;51.020;7.772;2024-02-15T14:15:38;97404.00;;;18.50
19666;BMP180;9980;51.020;7.772;2024-02-15T14:18:11;97401.00;;;18.50
19666;BMP180;9980;51.020;7.772;2024-02-15T14:20:42;97398.00;;;18.50
19666;BMP180;9980;51.020;7.772;2024-02-15T14:23:10;97404.00;;;18.50
19666;BMP180;9980;51.020;7.772;2024-02-15T14:25:44;97398.00;;;18.50
19666;BMP180;9980;51.020;7.772;2024-02-15T14:28:13;97392.00;;;18.50
19666;BMP180;9980;51.020;7.772;2024-02-15T14:30:41;97382.00;;;18.50
19666;BMP180;9980;51.020;7.772;2024-02-15T14:33:26;97405.00;;;18.50
19666;BMP180;9980;51.020;7.772;2024-02-15T14:35:56;97404.00;;;18.50
19666;BMP180;9980;51.020;7.772;2024-02-15T14:38:23;97397.00;;;18.50
19666;BMP180;9980;51.020;7.772;2024-02-15T14:40:51;97396.00;;;18.50
19666;BMP180;9980;51.020;7.772;2024-02-15T14:43:22;97399.00;;;18.50
19666;BMP180;9980;51.020;7.772;2024-02-15T14:45:51;97396.00;;;18.50